Time;durP1;ratioP1;P1;durP2;ratioP2;P2;SDS_P1;SDS_P2;PMS_P1;PMS_P2;Temp;Humidity;BMP_temperature;BMP_pressure;BME280_temperature;BME280_humidity;BME280_pressure;Samples;Min_cycle;Max_cycle;Signal;HPM_P1;HPM_P2
2023/12/08 00:00:56;;;;;;;;;;;;;;;;;;6289742;28;20396;-89
2023/12/08 00:03:56;;;;;;;;;;;;;;;;;;6285541;28;19924;-88
2023/12/08 00:06:57;;;;;;;;;;;;;;;;;;6282942;28;19913;-89
2023/12/08 00:09:57;;;;;;;;;;;;;;;;;;6298977;28;19908;-89
2023/12/08 00:12:57;;;;;;;;;;;;;;;;;;6297874;28;19966;-89
2023/12/08 00:15:58;;;;;;;;;;;;;;;;;;6292467;28;19916;-89
2023/12/08 00:18:58;;;;;;;;;;;;;;;;;;6266540;28;19908;-88
2023/12/08 00:21:58;;;;;;;;;;;;;;;;;;6273531;28;20358;-89
2023/12/08 00:24:58;;;;;;;;;;;;;;;;;;6277853;28;19955;-88
2023/12/08 00:27:58;;;;;;;;;;;;;;;;;;6262416;28;20341;-88
2023/12/08 00:30:58;;;;;;;;;;;;;;;;;;6269829;28;20270;-88
2023/12/08 00:33:58;;;;;;;;;;;;;;;;;;6290615;28;19980;-89
2023/12/08 00:36:59;;;;;;;;;;;;;;;;;;6294519;28;20003;-88
2023/12/08 00:39:59;;;;;;;;;;;;;;;;;;6286931;28;19927;-89
2023/12/08 00:42:59;;;;;;;;;;;;;;;;;;6318202;28;19962;-89
2023/12/08 00:45:59;;;;;;;;;;;;;;;;;;6304397;28;20469;-89
2023/12/08 00:48:59;;;;;;;;;;;;;;;;;;6315271;28;20448;-89
2023/12/08 00:51:59;;;;;;;;;;;;;;;;;;6302660;28;20444;-89
2023/12/08 00:54:59;;;;;;;;;;;;;;;;;;6302754;28;20411;-89
2023/12/08 00:58:00;;;;;;;;;;;;;;;;;;6288929;28;19936;-89
2023/12/08 01:01:00;;;;;;;;;;;;;;;;;;6298817;28;19998;-88
2023/12/08 01:04:00;;;;;;;;;;;;;;;;;;6300600;28;20015;-88
2023/12/08 01:07:00;;;;;;;;;;;;;;;;;;6306857;28;19909;-88
2023/12/08 01:10:00;;;;;;;;;;;;;;;;;;6276848;28;19920;-89
2023/12/08 01:13:00;;;;;;;;;;;;;;;;;;6278088;28;19909;-88
2023/12/08 01:16:00;;;;;;;;;;;;;;;;;;6292457;28;19913;-88
2023/12/08 01:19:01;;;;;;;;;;;;;;;;;;6288911;28;19916;-88
2023/12/08 01:22:01;;;;;;;;;;;;;;;;;;6292204;28;19920;-89
2023/12/08 01:25:01;;;;;;;;;;;;;;;;;;6279228;28;20282;-88
2023/12/08 01:28:01;;;;;;;;;;;;;;;;;;6276613;28;20006;-88
2023/12/08 01:31:03;;;;;;;;;;;;;;;;;;6296236;28;19928;-88
2023/12/08 01:34:03;;;;;;;;;;;;;;;;;;6280027;28;19916;-82
2023/12/08 01:37:03;;;;;;;;;;;;;;;;;;6299176;28;19919;-83
2023/12/08 01:40:03;;;;;;;;;;;;;;;;;;6278550;28;19972;-81
2023/12/08 01:43:03;;;;;;;;;;;;;;;;;;6293613;28;19920;-81
2023/12/08 01:46:03;;;;;;;;;;;;;;;;;;6274857;28;19917;-81
2023/12/08 01:49:03;;;;;;;;;;;;;;;;;;6276207;28;19920;-80
2023/12/08 01:52:04;;;;;;;;;;;;;;;;;;6280524;28;19917;-82
2023/12/08 01:55:04;;;;;;;;;;;;;;;;;;6291784;28;19913;-81
2023/12/08 01:58:04;;;;;;;;;;;;;;;;;;6290829;28;20277;-81
2023/12/08 02:01:04;;;;;;;;;;;;;;;;;;5944895;28;10000485;-82
2023/12/08 02:04:05;;;;;;;;;;;;;;;;;;6278854;28;19912;-81
2023/12/08 02:07:05;;;;;;;;;;;;;;;;;;6271129;28;19999;-82
2023/12/08 02:10:05;;;;;;;;;;;;;;;;;;6270710;28;19916;-84
2023/12/08 02:13:05;;;;;;;;;;;;;;;;;;6282367;28;19913;-82
2023/12/08 02:16:05;;;;;;;;;;;;;;;;;;6276253;28;19920;-83
2023/12/08 02:19:05;;;;;;;;;;;;;;;;;;6266488;28;19943;-82
2023/12/08 02:22:05;;;;;;;;;;;;;;;;;;6270817;28;19917;-81
2023/12/08 02:25:06;;;;;;;;;;;;;;;;;;6282441;28;19913;-81
2023/12/08 02:28:06;;;;;;;;;;;;;;;;;;6295150;28;19919;-82
2023/12/08 02:31:06;;;;;;;;;;;;;;;;;;6270929;28;19921;-83
2023/12/08 02:34:07;;;;;;;;;;;;;;;;;;6270766;28;20381;-81
2023/12/08 02:37:07;;;;;;;;;;;;;;;;;;6267507;28;20385;-83
2023/12/08 02:40:07;;;;;;;;;;;;;;;;;;6285041;28;19931;-83
2023/12/08 02:43:07;;;;;;;;;;;;;;;;;;6295730;28;19940;-89
2023/12/08 02:46:07;;;;;;;;;;;;;;;;;;6282174;28;20448;-89
2023/12/08 02:49:07;;;;;;;;;;;;;;;;;;6271222;28;19916;-89
2023/12/08 02:52:07;;;;;;;;;;;;;;;;;;6272677;28;20046;-90
2023/12/08 02:55:08;;;;;;;;;;;;;;;;;;6272271;28;19915;-89
2023/12/08 02:58:08;;;;;;;;;;;;;;;;;;6271718;28;19917;-90
2023/12/08 03:01:08;;;;;;;;;;;;;;;;;;6280678;28;20016;-90
2023/12/08 03:04:08;;;;;;;;;;;;;;;;;;6294208;28;19920;-89
2023/12/08 03:07:08;;;;;;;;;;;;;;;;;;6284690;28;19913;-90
2023/12/08 03:10:08;;;;;;;;;;;;;;;;;;6272087;28;19920;-90
2023/12/08 03:13:08;;;;;;;;;;;;;;;;;;6280095;28;20347;-90
2023/12/08 03:16:09;;;;;;;;;;;;;;;;;;6278838;28;19916;-90
2023/12/08 03:19:09;;;;;;;;;;;;;;;;;;6293438;28;19939;-90
2023/12/08 03:22:09;;;;;;;;;;;;;;;;;;6296566;28;19959;-90
2023/12/08 03:25:09;;;;;;;;;;;;;;;;;;6287146;28;20181;-89
2023/12/08 03:28:09;;;;;;;;;;;;;;;;;;6280581;28;19986;-89
2023/12/08 03:31:09;;;;;;;;;;;;;;;;;;6252918;28;20042;-90
2023/12/08 03:34:09;;;;;;;;;;;;;;;;;;6254589;28;19968;-90
2023/12/08 03:37:09;;;;;;;;;;;;;;;;;;6267960;28;19960;-90
2023/12/08 03:40:10;;;;;;;;;;;;;;;;;;6272472;28;20017;-89
2023/12/08 03:43:10;;;;;;;;;;;;;;;;;;6296545;28;19964;-89
2023/12/08 03:46:10;;;;;;;;;;;;;;;;;;6276750;28;19951;-91
2023/12/08 03:49:10;;;;;;;;;;;;;;;;;;6276836;28;19959;-89
2023/12/08 03:52:10;;;;;;;;;;;;;;;;;;6279583;28;19959;-89
2023/12/08 03:55:10;;;;;;;;;;;;;;;;;;6271158;28;19917;-90
2023/12/08 03:58:10;;;;;;;;;;;;;;;;;;5569787;28;10000617;-89
2023/12/08 04:01:10;;;;;;;;;;;;;;;;;;6254540;28;19916;-91
2023/12/08 04:04:12;;;;;;;;;;;;;;;;;;6278019;28;19917;-89
2023/12/08 04:07:12;;;;;;;;;;;;;;;;;;6290212;28;20395;-91
2023/12/08 04:10:12;;;;;;;;;;;;;;;;;;6257294;28;19912;-89
2023/12/08 04:13:13;;;;;;;;;;;;;;;;;;6298465;28;20324;-89
2023/12/08 04:16:13;;;;;;;;;;;;;;;;;;6302057;28;19924;-89
2023/12/08 04:19:13;;;;;;;;;;;;;;;;;;6279461;28;19920;-89
2023/12/08 04:22:13;;;;;;;;;;;;;;;;;;6291450;28;20339;-89
2023/12/08 04:25:13;;;;;;;;;;;;;;;;;;6279239;28;19916;-89
2023/12/08 04:28:14;;;;;;;;;;;;;;;;;;6277580;28;19917;-89
2023/12/08 04:31:14;;;;;;;;;;;;;;;;;;6289771;28;20317;-89
2023/12/08 04:34:14;;;;;;;;;;;;;;;;;;6269258;28;20337;-89
2023/12/08 04:37:14;;;;;;;;;;;;;;;;;;6255645;28;20343;-89
2023/12/08 04:40:14;;;;;;;;;;;;;;;;;;6247809;28;19921;-89
2023/12/08 04:43:14;;;;;;;;;;;;;;;;;;6286755;28;19940;-89
2023/12/08 04:46:14;;;;;;;;;;;;;;;;;;6258535;28;19940;-90
2023/12/08 04:49:15;;;;;;;;;;;;;;;;;;6259081;28;19909;-89
2023/12/08 04:52:15;;;;;;;;;;;;;;;;;;6249836;28;19913;-89
2023/12/08 04:55:15;;;;;;;;;;;;;;;;;;6257701;28;19974;-90
2023/12/08 04:58:16;;;;;;;;;;;;;;;;;;6257513;28;19936;-88
2023/12/08 05:01:16;;;;;;;;;;;;;;;;;;6252887;28;19992;-90
2023/12/08 05:04:17;;;;;;;;;;;;;;;;;;6283641;28;19978;-90
2023/12/08 05:07:17;;;;;;;;;;;;;;;;;;6301367;28;19912;-90
2023/12/08 05:10:17;;;;;;;;;;;;;;;;;;6283810;28;20365;-90
2023/12/08 05:13:18;;;;;;;;;;;;;;;;;;6268968;28;19913;-89
2023/12/08 05:16:18;;;;;;;;;;;;;;;;;;6276231;28;19999;-90
2023/12/08 05:19:18;;;;;;;;;;;;;;;;;;6264581;28;20413;-90
2023/12/08 05:22:18;;;;;;;;;;;;;;;;;;6260464;28;20398;-90
2023/12/08 05:25:18;;;;;;;;;;;;;;;;;;6269784;28;19909;-90
2023/12/08 05:28:18;;;;;;;;;;;;;;;;;;6252479;28;20010;-90
2023/12/08 05:31:19;;;;;;;;;;;;;;;;;;6265467;28;19948;-90
2023/12/08 05:34:19;;;;;;;;;;;;;;;;;;6283780;28;19971;-90
2023/12/08 05:37:19;;;;;;;;;;;;;;;;;;6284034;28;19959;-90
2023/12/08 05:40:19;;;;;;;;;;;;;;;;;;6292044;28;19913;-90
2023/12/08 05:43:19;;;;;;;;;;;;;;;;;;6276558;28;19987;-90
2023/12/08 05:46:19;;;;;;;;;;;;;;;;;;6275235;28;20365;-90
2023/12/08 05:49:20;;;;;;;;;;;;;;;;;;6287527;28;19917;-90
2023/12/08 05:52:20;;;;;;;;;;;;;;;;;;6298223;28;19919;-89
2023/12/08 05:55:20;;;;;;;;;;;;;;;;;;6265933;28;19916;-89
2023/12/08 05:58:24;;;;;;;;;;;;;;;;;;5932410;28;10000246;-89
2023/12/08 06:01:24;;;;;;;;;;;;;;;;;;6299347;28;20361;-88
2023/12/08 06:04:24;;;;;;;;;;;;;;;;;;6299936;28;19920;-89
2023/12/08 06:07:24;;;;;;;;;;;;;;;;;;6272109;28;19948;-88
2023/12/08 06:10:24;;;;;;;;;;;;;;;;;;6286200;28;19959;-88
2023/12/08 06:13:25;;;;;;;;;;;;;;;;;;6286565;28;19943;-88
2023/12/08 06:16:25;;;;;;;;;;;;;;;;;;6293297;28;20483;-88
2023/12/08 06:19:25;;;;;;;;;;;;;;;;;;6299524;28;20299;-89
2023/12/08 06:22:25;;;;;;;;;;;;;;;;;;6299831;28;19916;-88
2023/12/08 06:25:25;;;;;;;;;;;;;;;;;;6281721;28;20385;-88
2023/12/08 06:28:25;;;;;;;;;;;;;;;;;;6279724;28;19917;-89
2023/12/08 06:31:25;;;;;;;;;;;;;;;;;;6289315;28;19925;-89
2023/12/08 06:34:26;;;;;;;;;;;;;;;;;;6298990;28;19916;-88
2023/12/08 06:37:26;;;;;;;;;;;;;;;;;;6275604;28;20015;-89
2023/12/08 06:40:27;;;;;;;;;;;;;;;;;;6296811;28;20046;-88
2023/12/08 06:43:27;;;;;;;;;;;;;;;;;;6278831;28;19917;-89
2023/12/08 06:46:27;;;;;;;;;;;;;;;;;;6279206;28;19920;-88
2023/12/08 06:49:27;;;;;;;;;;;;;;;;;;6286506;28;19936;-89
2023/12/08 06:52:30;;;;;;;;;;;;;;;;;;6289058;28;20177;-89
2023/12/08 06:55:30;;;;;;;;;;;;;;;;;;6281917;28;19935;-89
2023/12/08 06:58:30;;;;;;;;;;;;;;;;;;6296671;28;19917;-88
2023/12/08 07:01:30;;;;;;;;;;;;;;;;;;6297699;28;19974;-88
2023/12/08 07:04:30;;;;;;;;;;;;;;;;;;6274189;28;20321;-88
2023/12/08 07:07:30;;;;;;;;;;;;;;;;;;6280310;28;19917;-89
2023/12/08 07:10:31;;;;;;;;;;;;;;;;;;6289433;28;19913;-89
2023/12/08 07:13:31;;;;;;;;;;;;;;;;;;6280727;28;19908;-89
2023/12/08 07:16:31;;;;;;;;;;;;;;;;;;6297497;28;20281;-89
2023/12/08 07:19:31;;;;;;;;;;;;;;;;;;6262438;28;20324;-89
2023/12/08 07:22:32;;;;;;;;;;;;;;;;;;6279580;28;20288;-89
2023/12/08 07:25:32;;;;;;;;;;;;;;;;;;6289762;28;19909;-80
2023/12/08 07:28:32;;;;;;;;;;;;;;;;;;6273074;28;20392;-81
2023/12/08 07:31:33;;;;;;;;;;;;;;;;;;6271536;28;19928;-81
2023/12/08 07:34:33;;;;;;;;;;;;;;;;;;6282919;28;19912;-80
2023/12/08 07:37:33;;;;;;;;;;;;;;;;;;6276529;28;19915;-83
2023/12/08 07:40:33;;;;;;;;;;;;;;;;;;6288040;28;19917;-80
2023/12/08 07:43:35;;;;;;;;;;;;;;;;;;6290161;28;19913;-82
2023/12/08 07:46:35;;;;;;;;;;;;;;;;;;6298822;28;19912;-79
2023/12/08 07:49:35;;;;;;;;;;;;;;;;;;6271121;28;20297;-81
2023/12/08 07:52:36;;;;;;;;;;;;;;;;;;6288248;28;19916;-79
2023/12/08 07:55:36;;;;;;;;;;;;;;;;;;6298462;28;20361;-81
2023/12/08 07:58:36;;;;;;;;;;;;;;;;;;6289557;28;19909;-81
2023/12/08 08:01:36;;;;;;;;;;;;;;;;;;6298251;28;19983;-80
2023/12/08 08:04:36;;;;;;;;;;;;;;;;;;6280448;28;20041;-82
2023/12/08 08:07:37;;;;;;;;;;;;;;;;;;6295630;28;19920;-81
2023/12/08 08:10:37;;;;;;;;;;;;;;;;;;6293246;28;19962;-81
2023/12/08 08:13:37;;;;;;;;;;;;;;;;;;6296895;28;19960;-81
2023/12/08 08:16:37;;;;;;;;;;;;;;;;;;6296349;28;19960;-81
2023/12/08 08:19:37;;;;;;;;;;;;;;;;;;6268956;28;19959;-80
2023/12/08 08:22:37;;;;;;;;;;;;;;;;;;6289330;28;19951;-81
2023/12/08 08:25:37;;;;;;;;;;;;;;;;;;6295278;28;19919;-81
2023/12/08 08:28:38;;;;;;;;;;;;;;;;;;6296979;28;19916;-82
2023/12/08 08:31:38;;;;;;;;;;;;;;;;;;6293499;28;19920;-81
2023/12/08 08:34:38;;;;;;;;;;;;;;;;;;6278493;28;19916;-90
2023/12/08 08:37:38;;;;;;;;;;;;;;;;;;6289694;28;19920;-89
2023/12/08 08:40:38;;;;;;;;;;;;;;;;;;6278438;28;20110;-89
2023/12/08 08:43:39;;;;;;;;;;;;;;;;;;6283402;28;20262;-89
2023/12/08 08:46:39;;;;;;;;;;;;;;;;;;6267509;28;19924;-94
2023/12/08 08:49:39;;;;;;;;;;;;;;;;;;6290774;28;19948;-93
2023/12/08 08:52:40;;;;;;;;;;;;;;;;;;6276710;28;19917;-94
2023/12/08 08:55:40;;;;;;;;;;;;;;;;;;6268547;28;19947;-94
2023/12/08 08:58:40;;;;;;;;;;;;;;;;;;6315962;28;19919;-94
2023/12/08 09:01:41;;;;;;;;;;;;;;;;;;6289261;28;19921;-93
2023/12/08 09:04:42;;;;;;;;;;;;;;;;;;6285797;28;19923;-92
2023/12/08 09:07:42;;;;;;;;;;;;;;;;;;6284732;28;19909;-93
2023/12/08 09:10:45;;;;;;;;;;;;;;;;;;6285029;28;20251;-92
2023/12/08 09:13:45;;;;;;;;;;;;;;;;;;5931912;27;9999783;-92
2023/12/08 09:16:46;;;;;;;;;;;;;;;;;;6288026;28;19977;-91
2023/12/08 09:19:47;;;;;;;;;;;;;;;;;;6284791;28;19982;-93
2023/12/08 09:22:47;;;;;;;;;;;;;;;;;;6302385;28;19912;-91
2023/12/08 09:25:47;;;;;;;;;;;;;;;;;;6299743;28;19908;-92
2023/12/08 09:28:47;;;;;;;;;;;;;;;;;;6299757;28;19916;-92
2023/12/08 09:31:48;;;;;;;;;;;;;;;;;;6280559;28;20298;-93
2023/12/08 09:34:48;;;;;;;;;;;;;;;;;;6288745;28;19908;-92
2023/12/08 09:37:48;;;;;;;;;;;;;;;;;;6296518;28;20204;-90
2023/12/08 09:40:48;;;;;;;;;;;;;;;;;;6290977;28;19916;-92
2023/12/08 09:43:49;;;;;;;;;;;;;;;;;;6273506;28;19923;-81
2023/12/08 09:46:54;;;;;;;;;;;;;;;;;;6282906;28;19917;-82
2023/12/08 09:49:55;;;;;;;;;;;;;;;;;;6296206;28;20395;-83
2023/12/08 09:52:55;;;;;;;;;;;;;;;;;;6295673;28;19913;-82
2023/12/08 09:55:55;;;;;;;;;;;;;;;;;;6296428;28;20357;-82
2023/12/08 09:58:55;;;;;;;;;;;;;;;;;;6296292;28;20349;-82
2023/12/08 10:01:55;;;;;;;;;;;;;;;;;;6276874;28;20388;-82
2023/12/08 10:04:55;;;;;;;;;;;;;;;;;;6286075;28;20385;-82
2023/12/08 10:07:56;;;;;;;;;;;;;;;;;;6295511;28;20335;-81
2023/12/08 10:10:56;;;;;;;;;;;;;;;;;;6296021;28;20015;-82
2023/12/08 10:13:56;;;;;;;;;;;;;;;;;;6293976;28;19916;-82
2023/12/08 10:16:57;;;;;;;;;;;;;;;;;;6289350;28;19917;-82
2023/12/08 10:19:57;;;;;;;;;;;;;;;;;;6295411;28;20344;-82
2023/12/08 10:22:57;;;;;;;;;;;;;;;;;;6296197;28;20491;-82
2023/12/08 10:25:57;;;;;;;;;;;;;;;;;;6290861;28;20292;-82
2023/12/08 10:28:57;;;;;;;;;;;;;;;;;;6295816;28;19912;-82
2023/12/08 10:31:57;;;;;;;;;;;;;;;;;;6274873;28;19932;-82
2023/12/08 10:34:58;;;;;;;;;;;;;;;;;;6286954;28;20347;-82
2023/12/08 10:37:58;;;;;;;;;;;;;;;;;;6272217;28;19913;-82
2023/12/08 10:40:58;;;;;;;;;;;;;;;;;;6278813;28;19956;-82
2023/12/08 10:43:58;;;;;;;;;;;;;;;;;;6285238;28;20008;-82
2023/12/08 10:46:58;;;;;;;;;;;;;;;;;;6284838;28;19995;-84
2023/12/08 10:49:59;;;;;;;;;;;;;;;;;;6303928;28;19912;-82
2023/12/08 10:52:59;;;;;;;;;;;;;;;;;;6282954;28;19967;-81
2023/12/08 10:55:59;;;;;;;;;;;;;;;;;;6275486;28;20136;-82
2023/12/08 10:58:59;;;;;;;;;;;;;;;;;;6276609;28;19918;-82
2023/12/08 11:01:59;;;;;;;;;;;;;;;;;;6294110;28;20385;-84
2023/12/08 11:05:00;;;;;;;;;;;;;;;;;;6294816;28;19977;-82
2023/12/08 11:08:00;;;;;;;;;;;;;;;;;;6267293;28;19920;-82
2023/12/08 11:11:01;;;;;;;;;;;;;;;;;;6270721;28;20035;-81
2023/12/08 11:14:01;;;;;;;;;;;;;;;;;;6287606;28;19916;-82
2023/12/08 11:17:04;;;;;;;;;;;;;;;;;;6293782;28;19916;-83
2023/12/08 11:20:08;;;;;;;;;;;;;;;;;;6277199;28;19994;-83
2023/12/08 11:23:08;;;;;;;;;;;;;;;;;;6295327;28;20422;-83
2023/12/08 11:26:08;;;;;;;;;;;;;;;;;;6281498;28;19990;-82
2023/12/08 11:29:08;;;;;;;;;;;;;;;;;;6286775;28;19941;-82
2023/12/08 11:32:08;;;;;;;;;;;;;;;;;;6301608;28;19925;-82
2023/12/08 11:35:08;;;;;;;;;;;;;;;;;;6310765;28;20007;-83
2023/12/08 11:38:08;;;;;;;;;;;;;;;;;;6282240;28;20015;-83
2023/12/08 11:41:09;;;;;;;;;;;;;;;;;;6276292;28;19959;-83
2023/12/08 11:44:09;;;;;;;;;;;;;;;;;;6276856;28;19916;-83
2023/12/08 11:47:09;;;;;;;;;;;;;;;;;;6291255;28;19913;-83
2023/12/08 11:50:10;;;;;;;;;;;;;;;;;;6304103;28;19920;-83
2023/12/08 11:53:10;;;;;;;;;;;;;;;;;;6294850;28;19920;-83
2023/12/08 11:56:10;;;;;;;;;;;;;;;;;;6279567;28;20355;-82
2023/12/08 11:59:10;;;;;;;;;;;;;;;;;;6292233;28;20329;-83
2023/12/08 12:02:11;;;;;;;;;;;;;;;;;;6274919;28;20403;-83
2023/12/08 12:05:11;;;;;;;;;;;;;;;;;;6263537;28;20385;-91
2023/12/08 12:08:14;;;;;;;;;;;;;;;;;;6301141;28;19923;-90
2023/12/08 12:11:14;;;;;;;;;;;;;;;;;;6277952;28;19916;-91
2023/12/08 12:14:14;;;;;;;;;;;;;;;;;;6295493;28;19962;-91
2023/12/08 12:17:14;;;;;;;;;;;;;;;;;;6295893;28;19970;-91
2023/12/08 12:20:14;;;;;;;;;;;;;;;;;;6278424;28;19924;-91
2023/12/08 12:23:16;;;;;;;;;;;;;;;;;;6292571;28;20431;-90
2023/12/08 12:26:18;;;;;;;;;;;;;;;;;;6277229;28;19913;-90
2023/12/08 12:29:18;;;;;;;;;;;;;;;;;;6271635;28;19920;-91
2023/12/08 12:32:18;;;;;;;;;;;;;;;;;;6279968;28;20019;-91
2023/12/08 12:35:18;;;;;;;;;;;;;;;;;;6320916;28;19913;-91
2023/12/08 12:38:19;;;;;;;;;;;;;;;;;;6304056;28;19919;-90
2023/12/08 12:41:19;;;;;;;;;;;;;;;;;;6304957;28;20349;-91
2023/12/08 12:44:19;;;;;;;;;;;;;;;;;;6311831;28;19920;-90
2023/12/08 12:47:20;;;;;;;;;;;;;;;;;;6324888;28;20459;-90
2023/12/08 12:50:20;;;;;;;;;;;;;;;;;;6326720;28;19919;-90
2023/12/08 12:53:20;;;;;;;;;;;;;;;;;;6302262;28;19919;-91
2023/12/08 12:56:21;;;;;;;;;;;;;;;;;;6303600;28;19961;-90
2023/12/08 12:59:21;;;;;;;;;;;;;;;;;;6306722;28;20033;-91
2023/12/08 13:02:21;;;;;;;;;;;;;;;;;;6319285;28;20352;-90
2023/12/08 13:05:21;;;;;;;;;;;;;;;;;;6326021;28;19916;-92
2023/12/08 13:08:21;;;;;;;;;;;;;;;;;;6307444;28;19975;-90
2023/12/08 13:11:21;;;;;;;;;;;;;;;;;;6341409;28;20010;-90
2023/12/08 13:14:21;;;;;;;;;;;;;;;;;;6336810;28;19916;-85
2023/12/08 13:17:22;;;;;;;;;;;;;;;;;;6297457;28;20031;-85
2023/12/08 13:20:22;;;;;;;;;;;;;;;;;;6280791;28;19912;-85
2023/12/08 13:23:22;;;;;;;;;;;;;;;;;;6296835;28;20388;-85
2023/12/08 13:26:22;;;;;;;;;;;;;;;;;;5963475;28;9999743;-86
2023/12/08 13:29:22;;;;;;;;;;;;;;;;;;6316050;28;19966;-85
2023/12/08 13:32:22;;;;;;;;;;;;;;;;;;6287404;28;20031;-87
2023/12/08 13:35:23;;;;;;;;;;;;;;;;;;6278050;28;19959;-86
2023/12/08 13:38:23;;;;;;;;;;;;;;;;;;6279856;28;19917;-85
2023/12/08 13:41:23;;;;;;;;;;;;;;;;;;6290789;28;20266;-86
2023/12/08 13:44:23;;;;;;;;;;;;;;;;;;6276879;28;19917;-86
2023/12/08 13:47:24;;;;;;;;;;;;;;;;;;6275798;28;20317;-86
2023/12/08 13:50:24;;;;;;;;;;;;;;;;;;6298571;28;19913;-85
2023/12/08 13:53:24;;;;;;;;;;;;;;;;;;6299442;28;20023;-85
2023/12/08 13:56:24;;;;;;;;;;;;;;;;;;6280746;28;19909;-86
2023/12/08 13:59:24;;;;;;;;;;;;;;;;;;6274607;28;19913;-85
2023/12/08 14:02:24;;;;;;;;;;;;;;;;;;6297823;28;20016;-85
2023/12/08 14:05:25;;;;;;;;;;;;;;;;;;6297780;28;19975;-85
2023/12/08 14:08:25;;;;;;;;;;;;;;;;;;6289117;28;19995;-84
2023/12/08 14:11:25;;;;;;;;;;;;;;;;;;6280316;28;19957;-84
2023/12/08 14:14:25;;;;;;;;;;;;;;;;;;6299490;28;19912;-84
2023/12/08 14:17:25;;;;;;;;;;;;;;;;;;6296113;28;20502;-84
2023/12/08 14:20:25;;;;;;;;;;;;;;;;;;6298310;28;19923;-84
2023/12/08 14:23:26;;;;;;;;;;;;;;;;;;6286470;28;19966;-84
2023/12/08 14:26:26;;;;;;;;;;;;;;;;;;6261338;28;19917;-85
2023/12/08 14:29:26;;;;;;;;;;;;;;;;;;6267788;28;20250;-83
2023/12/08 14:32:26;;;;;;;;;;;;;;;;;;6312922;28;20732;-85
2023/12/08 14:35:26;;;;;;;;;;;;;;;;;;6301449;28;20335;-84
2023/12/08 14:38:27;;;;;;;;;;;;;;;;;;6312945;28;19917;-86
2023/12/08 14:41:27;;;;;;;;;;;;;;;;;;6320132;28;19926;-83
2023/12/08 14:44:28;;;;;;;;;;;;;;;;;;6319091;28;20006;-84
2023/12/08 14:47:29;;;;;;;;;;;;;;;;;;6291969;28;20396;-84
2023/12/08 14:50:29;;;;;;;;;;;;;;;;;;6299743;28;20284;-84
2023/12/08 14:53:29;;;;;;;;;;;;;;;;;;6303630;28;20459;-83
2023/12/08 14:56:29;;;;;;;;;;;;;;;;;;6322763;28;20387;-84
2023/12/08 14:59:29;;;;;;;;;;;;;;;;;;6323419;28;19977;-84
2023/12/08 15:02:29;;;;;;;;;;;;;;;;;;6313512;28;19911;-83
2023/12/08 15:05:30;;;;;;;;;;;;;;;;;;6348771;28;19972;-83
2023/12/08 15:08:30;;;;;;;;;;;;;;;;;;6335663;28;19958;-83
2023/12/08 15:11:30;;;;;;;;;;;;;;;;;;6321439;28;19912;-83
2023/12/08 15:14:30;;;;;;;;;;;;;;;;;;6322290;28;19915;-83
2023/12/08 15:17:30;;;;;;;;;;;;;;;;;;6306158;28;19972;-83
2023/12/08 15:20:35;;;;;;;;;;;;;;;;;;6298889;28;19917;-82
2023/12/08 15:23:36;;;;;;;;;;;;;;;;;;6308005;28;19955;-83
2023/12/08 15:26:37;;;;;;;;;;;;;;;;;;5955816;28;10000208;-86
2023/12/08 15:29:37;;;;;;;;;;;;;;;;;;6316813;28;20012;-84
2023/12/08 15:32:37;;;;;;;;;;;;;;;;;;6296723;28;20473;-88
2023/12/08 15:35:37;;;;;;;;;;;;;;;;;;6323022;28;20357;-84
2023/12/08 15:38:37;;;;;;;;;;;;;;;;;;6302373;28;19917;-84
2023/12/08 15:41:37;;;;;;;;;;;;;;;;;;6296988;28;19926;-84
2023/12/08 15:44:37;;;;;;;;;;;;;;;;;;6295393;28;19920;-84
2023/12/08 15:47:38;;;;;;;;;;;;;;;;;;6277637;28;19917;-84
2023/12/08 15:50:38;;;;;;;;;;;;;;;;;;6311444;28;19917;-82
2023/12/08 15:53:38;;;;;;;;;;;;;;;;;;6306526;28;20023;-83
2023/12/08 15:56:38;;;;;;;;;;;;;;;;;;6309230;28;20007;-83
2023/12/08 15:59:38;;;;;;;;;;;;;;;;;;6315664;28;20219;-83
2023/12/08 16:02:39;;;;;;;;;;;;;;;;;;6328684;28;19915;-83
2023/12/08 16:05:39;;;;;;;;;;;;;;;;;;6314607;28;19913;-83
2023/12/08 16:08:39;;;;;;;;;;;;;;;;;;6296271;28;19916;-83
2023/12/08 16:11:39;;;;;;;;;;;;;;;;;;5603036;28;10000689;-83
2023/12/08 16:14:39;;;;;;;;;;;;;;;;;;6314338;28;19913;-83
2023/12/08 16:17:39;;;;;;;;;;;;;;;;;;6305197;28;19973;-82
2023/12/08 16:20:40;;;;;;;;;;;;;;;;;;6284608;28;20419;-82
2023/12/08 16:23:40;;;;;;;;;;;;;;;;;;6326738;28;20395;-83
2023/12/08 16:26:40;;;;;;;;;;;;;;;;;;6301387;28;19965;-82
2023/12/08 16:29:40;;;;;;;;;;;;;;;;;;6298711;28;19911;-83
2023/12/08 16:32:40;;;;;;;;;;;;;;;;;;6320875;28;20010;-83
2023/12/08 16:35:40;;;;;;;;;;;;;;;;;;6301707;28;20014;-82
2023/12/08 16:38:41;;;;;;;;;;;;;;;;;;6306569;28;19919;-82
2023/12/08 16:41:41;;;;;;;;;;;;;;;;;;6314161;28;19916;-82
2023/12/08 16:44:41;;;;;;;;;;;;;;;;;;6324989;28;19912;-83
2023/12/08 16:47:41;;;;;;;;;;;;;;;;;;6305372;28;20361;-82
2023/12/08 16:50:41;;;;;;;;;;;;;;;;;;6331369;28;19951;-82
2023/12/08 16:53:41;;;;;;;;;;;;;;;;;;6308241;28;19997;-82
2023/12/08 16:56:42;;;;;;;;;;;;;;;;;;6318709;28;20001;-82
2023/12/08 16:59:42;;;;;;;;;;;;;;;;;;6300966;28;19956;-82
2023/12/08 17:02:42;;;;;;;;;;;;;;;;;;6327901;28;19963;-82
2023/12/08 17:05:42;;;;;;;;;;;;;;;;;;6322118;28;19969;-82
2023/12/08 17:08:43;;;;;;;;;;;;;;;;;;6300757;28;19974;-82
2023/12/08 17:11:43;;;;;;;;;;;;;;;;;;6305190;28;20287;-83
2023/12/08 17:14:43;;;;;;;;;;;;;;;;;;6317675;28;20015;-83
2023/12/08 17:17:43;;;;;;;;;;;;;;;;;;6313134;28;20006;-83
2023/12/08 17:20:44;;;;;;;;;;;;;;;;;;6301022;28;20024;-83
2023/12/08 17:23:44;;;;;;;;;;;;;;;;;;6310876;28;20002;-84
2023/12/08 17:26:44;;;;;;;;;;;;;;;;;;6299941;28;19952;-84
2023/12/08 17:29:44;;;;;;;;;;;;;;;;;;6307527;28;19912;-85
2023/12/08 17:32:44;;;;;;;;;;;;;;;;;;6298746;28;19908;-80
2023/12/08 17:35:46;;;;;;;;;;;;;;;;;;6300671;28;19961;-81
2023/12/08 17:38:46;;;;;;;;;;;;;;;;;;6300175;28;20370;-80
2023/12/08 17:41:46;;;;;;;;;;;;;;;;;;6329897;28;19963;-82
2023/12/08 17:44:46;;;;;;;;;;;;;;;;;;6314077;28;19960;-86
2023/12/08 17:47:47;;;;;;;;;;;;;;;;;;6303731;28;20010;-85
2023/12/08 17:50:47;;;;;;;;;;;;;;;;;;6319954;28;20008;-85
2023/12/08 17:53:47;;;;;;;;;;;;;;;;;;6293881;28;19921;-85
2023/12/08 17:56:48;;;;;;;;;;;;;;;;;;6300307;28;19908;-88
2023/12/08 17:59:48;;;;;;;;;;;;;;;;;;6305224;28;19916;-87
2023/12/08 18:02:54;;;;;;;;;;;;;;;;;;6285266;28;19995;-88
2023/12/08 18:05:55;;;;;;;;;;;;;;;;;;6301087;28;20395;-87
2023/12/08 18:08:55;;;;;;;;;;;;;;;;;;6324479;28;19912;-87
2023/12/08 18:11:55;;;;;;;;;;;;;;;;;;5977511;28;9999948;-89
2023/12/08 18:14:56;;;;;;;;;;;;;;;;;;6332688;28;19957;-86
2023/12/08 18:17:59;;;;;;;;;;;;;;;;;;6324375;28;19973;-87
2023/12/08 18:21:01;;;;;;;;;;;;;;;;;;6313338;28;19912;-87
2023/12/08 18:24:01;;;;;;;;;;;;;;;;;;6305097;28;19924;-88
2023/12/08 18:27:04;;;;;;;;;;;;;;;;;;6320221;28;19966;-88
2023/12/08 18:30:04;;;;;;;;;;;;;;;;;;6316671;28;19920;-87
2023/12/08 18:33:04;;;;;;;;;;;;;;;;;;6283038;28;19956;-89
2023/12/08 18:36:04;;;;;;;;;;;;;;;;;;6315200;28;20115;-89
2023/12/08 18:39:05;;;;;;;;;;;;;;;;;;6307021;28;19909;-88
2023/12/08 18:42:05;;;;;;;;;;;;;;;;;;6306117;28;19923;-88
2023/12/08 18:45:05;;;;;;;;;;;;;;;;;;6306344;28;19939;-88
2023/12/08 18:48:06;;;;;;;;;;;;;;;;;;6318138;28;19908;-86
2023/12/08 18:51:06;;;;;;;;;;;;;;;;;;6305763;28;19958;-89
2023/12/08 18:54:06;;;;;;;;;;;;;;;;;;6321964;28;19961;-88
2023/12/08 18:57:07;;;;;;;;;;;;;;;;;;6304465;28;19912;-89
2023/12/08 19:00:08;;;;;;;;;;;;;;;;;;6311225;28;19916;-89
2023/12/08 19:03:08;;;;;;;;;;;;;;;;;;6303070;28;20017;-88
2023/12/08 19:06:09;;;;;;;;;;;;;;;;;;6295374;28;20345;-88
2023/12/08 19:09:09;;;;;;;;;;;;;;;;;;6311978;28;19913;-89
2023/12/08 19:12:11;;;;;;;;;;;;;;;;;;6299340;28;20280;-88
2023/12/08 19:15:11;;;;;;;;;;;;;;;;;;6301464;28;19925;-87
2023/12/08 19:18:11;;;;;;;;;;;;;;;;;;6300556;28;19925;-88
2023/12/08 19:21:11;;;;;;;;;;;;;;;;;;6295975;28;20242;-88
2023/12/08 19:24:12;;;;;;;;;;;;;;;;;;6306257;28;19927;-88
2023/12/08 19:27:12;;;;;;;;;;;;;;;;;;6277052;28;20393;-88
2023/12/08 19:30:12;;;;;;;;;;;;;;;;;;6319955;28;19931;-88
2023/12/08 19:33:12;;;;;;;;;;;;;;;;;;6328178;28;19916;-88
2023/12/08 19:36:12;;;;;;;;;;;;;;;;;;6329581;28;19961;-88
2023/12/08 19:39:12;;;;;;;;;;;;;;;;;;6299788;28;19965;-88
2023/12/08 19:42:13;;;;;;;;;;;;;;;;;;6296760;28;19920;-88
2023/12/08 19:45:13;;;;;;;;;;;;;;;;;;6293907;28;19920;-89
2023/12/08 19:48:13;;;;;;;;;;;;;;;;;;6297308;28;20372;-87
2023/12/08 19:51:13;;;;;;;;;;;;;;;;;;6297890;28;20337;-89
2023/12/08 19:54:13;;;;;;;;;;;;;;;;;;6298843;28;20348;-89
2023/12/08 19:57:14;;;;;;;;;;;;;;;;;;6314700;28;19912;-89
2023/12/08 20:00:15;;;;;;;;;;;;;;;;;;6319399;28;20052;-88
2023/12/08 20:03:15;;;;;;;;;;;;;;;;;;6304335;28;19916;-89
2023/12/08 20:06:15;;;;;;;;;;;;;;;;;;6319783;28;19918;-88
2023/12/08 20:09:15;;;;;;;;;;;;;;;;;;6312450;28;19923;-88
2023/12/08 20:12:15;;;;;;;;;;;;;;;;;;6301163;28;19913;-88
2023/12/08 20:15:15;;;;;;;;;;;;;;;;;;6287755;28;20293;-88
2023/12/08 20:18:15;;;;;;;;;;;;;;;;;;6293493;28;19937;-89
2023/12/08 20:21:16;;;;;;;;;;;;;;;;;;6312339;28;19975;-88
2023/12/08 20:24:16;;;;;;;;;;;;;;;;;;6318995;28;20397;-83
2023/12/08 20:27:16;;;;;;;;;;;;;;;;;;6310356;28;19958;-84